Finnhawk — OJNL — position and weather

sailwx.info

Track history (hours):
 
Tides and Currents Weather Stations Pressure Air Temp Water Temp Dewpoint Dewpoint Depression Visibility Wind Speed Wind Dir Waves Ship Positions

Finnhawk

Last reported at 2015-Mar-04 13:25 UTC. Time now 2015-Mar-04 20:22 UTC.
Position N 57°07' E 008°30'.

Length 163 m; draft 7 m.

Type: Ship (hazmat cat A). MMSI: 230007000.

Date/timePositionNaut miles runAvg speedWind from/ knotsBaromVisibWave heightAir tempDewpointWater temp
2015-Mar-04 13:25N 57°07' E 008°30'1516.3
2015-Mar-04 12:29N 57°18' E 008°50'5416.4
2015-Mar-04 09:11N 57°45' E 010°17'1016.4
2015-Mar-04 08:34N 57°48' E 010°36'1616.2
2015-Mar-04 07:33N 57°40' E 011°03'1817.8
2015-Mar-04 06:33N 57°28' E 011°26'1717.5
2015-Mar-04 05:33N 57°11' E 011°38'1717.4
2015-Mar-04 04:34N 56°55' E 011°49'1717.4
2015-Mar-04 03:34N 56°38' E 011°57'1717.0
2015-Mar-04 02:34N 56°23' E 012°12'1717.1
2015-Mar-04 01:34N 56°09' E 012°29'1515.4
2015-Mar-04 00:34N 55°56' E 012°44'1616.1
2015-Mar-03 23:34N 55°40' E 012°42'1313.2
2015-Mar-03 22:34N 55°27' E 012°42'1312.5
2015-Mar-03 21:33N 55°16' E 012°53'1817.5
2015-Mar-03 20:33N 55°15' E 013°24'1817.9
2015-Mar-03 19:33N 55°14' E 013°55'1616.2
2015-Mar-03 18:33N 55°18' E 014°23'1717.3
2015-Mar-03 17:33N 55°31' E 014°43'1817.2
2015-Mar-03 16:31N 55°39' E 015°11'35017.5
2015-Mar-02 20:34N 59°36' E 023°12'2218.0
2015-Mar-02 19:18N 59°42' E 023°55'1418.0
2015-Mar-02 18:33N 59°46' E 024°20'5518.2
2015-Mar-02 15:33N 60°02' E 026°04'1817.7
2015-Mar-02 14:33N 60°16' E 026°28'1717.2
2015-Mar-02 13:33N 60°25' E 026°56'4 3.8
2015-Mar-02 12:34N 60°29' E 026°57'0 0.0
2015-Mar-02 11:32N 60°29' E 026°57'0 0.0
2015-Mar-02 10:32N 60°29' E 026°57'0 0.0
2015-Mar-02 09:32N 60°29' E 026°57'0 0.0
2015-Mar-02 08:32N 60°29' E 026°57'0 0.0
2015-Mar-02 07:32N 60°29' E 026°57'0 0.0
2015-Mar-02 06:32N 60°29' E 026°57'0 0.0
2015-Mar-02 05:32N 60°29' E 026°57'0 0.0
2015-Mar-02 04:32N 60°29' E 026°57'0 0.0
2015-Mar-02 03:32N 60°29' E 026°57'0 0.0
2015-Mar-02 02:32N 60°29' E 026°57'0 0.0
2015-Mar-02 01:32N 60°29' E 026°57'0 0.0
2015-Mar-02 00:32N 60°29' E 026°57'0 0.0
2015-Mar-01 23:32N 60°29' E 026°57'0 0.0
2015-Mar-01 22:32N 60°29' E 026°57'0 0.0
2015-Mar-01 21:32N 60°29' E 026°57'0 0.0
2015-Mar-01 20:32N 60°29' E 026°57'0 0.0
2015-Mar-01 19:32N 60°29' E 026°57'0 0.0
2015-Mar-01 18:32N 60°29' E 026°57'0 0.0
2015-Mar-01 17:32N 60°29' E 026°57'0 0.0
2015-Mar-01 16:32N 60°29' E 026°57'0 0.0
2015-Mar-01 15:32N 60°29' E 026°57'0 0.0
2015-Mar-01 14:32N 60°29' E 026°57'0 0.0
2015-Mar-01 13:32N 60°29' E 026°57'0 0.0
2015-Mar-01 12:32N 60°29' E 026°57'0 0.0
2015-Mar-01 11:32N 60°29' E 026°57'0 0.0
2015-Mar-01 10:32N 60°29' E 026°57'0 0.0
2015-Mar-01 09:32N 60°29' E 026°57'0 0.0
2015-Mar-01 08:32N 60°29' E 026°57'0 0.0
2015-Mar-01 07:32N 60°29' E 026°57'0 0.2
2015-Mar-01 06:34N 60°29' E 026°57'1211.8
2015-Mar-01 05:34N 60°21' E 026°40'1817.1
2015-Mar-01 04:29N 60°04' E 026°25'11015.9
2015-Feb-28 21:33N 59°54' E 030°04'4 4.3
2015-Feb-28 20:33N 59°54' E 030°13'0 0.0
2015-Feb-28 19:32N 59°54' E 030°13'0 0.0
2015-Feb-28 18:32N 59°54' E 030°13'0 0.0
2015-Feb-28 17:32N 59°54' E 030°13'0 0.0
2015-Feb-28 16:32N 59°54' E 030°13'0 0.0
2015-Feb-28 15:32N 59°54' E 030°13'0 0.0
2015-Feb-28 14:32N 59°54' E 030°13'0 0.0
2015-Feb-28 13:32N 59°54' E 030°13'0 0.0
2015-Feb-28 12:33N 59°53' E 030°13'0 0.0
2015-Feb-28 11:33N 59°53' E 030°13'0 0.0
2015-Feb-28 10:33N 59°53' E 030°13'2 2.1
2015-Feb-28 09:33N 59°54' E 030°09'81 9.9
2015-Feb-28 01:24N 60°06' E 027°29'1619.1
2015-Feb-28 00:34N 59°58' E 027°01'2119.0
2015-Feb-27 23:27N 59°58' E 026°19'3417.7
2015-Feb-27 21:32N 60°04' E 025°12'9 3.1
2015-Feb-27 18:28N 60°13' E 025°12'0 0.0
2015-Feb-27 17:25N 60°13' E 025°12'0 0.0
2015-Feb-27 16:31N 60°13' E 025°12'0 0.0
2015-Feb-27 15:28N 60°13' E 025°12'0 0.0
2015-Feb-27 14:31N 60°13' E 025°12'0 0.0
2015-Feb-27 13:31N 60°13' E 025°12'3 3.5
2015-Feb-27 12:33N 60°10' E 025°13'3115.6
2015-Feb-27 10:33N 59°45' E 024°34'1817.0
2015-Feb-27 09:31N 59°40' E 024°01'1819.0
2015-Feb-27 08:33N 59°34' E 023°27'34618.2
2015-Feb-26 13:33N 55°40' E 015°31'1918.8
2015-Feb-26 12:33N 55°31' E 015°02'1919.0
2015-Feb-26 11:33N 55°20' E 014°35'1818.1
2015-Feb-26 10:33N 55°09' E 014°09'1918.9
2015-Feb-26 09:33N 55°12' E 013°36'1918.8
2015-Feb-26 08:33N 55°14' E 013°04'1716.5
2015-Feb-26 07:33N 55°21' E 012°37'1514.6
2015-Feb-26 06:33N 55°36' E 012°42'1515.2
2015-Feb-26 05:33N 55°51' E 012°41'1616.2
2015-Feb-26 04:33N 56°06' E 012°33'1817.7
2015-Feb-26 03:33N 56°20' E 012°12'1918.8
2015-Feb-26 02:33N 56°36' E 011°56'1918.7
2015-Feb-26 01:33N 56°54' E 011°45'1918.6
2015-Feb-26 00:33N 57°12' E 011°34'1918.8
2015-Feb-25 23:33N 57°29' E 011°20'1918.7
2015-Feb-25 22:33N 57°42' E 010°55'1818.1
2015-Feb-25 21:33N 57°44' E 010°21'39819.0
2015-Feb-25 00:34N 53°48' E 000°50'2019.7
2015-Feb-24 23:33N 53°38' E 000°22'1414.1
2015-Feb-24 22:33N 53°36' W 000°02'1312.6
2015-Feb-24 21:34N 53°44' W 000°16'0 0.4
2015-Feb-24 20:34N 53°44' W 000°16'0 0.0
2015-Feb-24 19:31N 53°44' W 000°16'0 0.0
2015-Feb-24 18:31N 53°44' W 000°16'0 0.0
2015-Feb-24 17:31N 53°44' W 000°16'0 0.0
2015-Feb-24 16:31N 53°44' W 000°16'0 0.0
2015-Feb-24 15:31N 53°44' W 000°16'0 0.0
2015-Feb-24 14:31N 53°44' W 000°16'0 0.0
2015-Feb-24 13:31N 53°44' W 000°16'0 0.0
2015-Feb-24 12:32N 53°44' W 000°16'0 0.0
2015-Feb-24 11:31N 53°44' W 000°16'0 0.0
2015-Feb-24 10:31N 53°44' W 000°16'0 0.0
2015-Feb-24 09:31N 53°44' W 000°16'0 0.0
2015-Feb-24 08:31N 53°44' W 000°16'0 0.0
2015-Feb-24 07:31N 53°44' W 000°16'0 0.3
2015-Feb-24 06:33N 53°44' W 000°16'8 8.3
2015-Feb-24 05:34N 53°38' W 000°08'1111.4
2015-Feb-24 04:34N 53°33' E 000°09'1110.9
2015-Feb-24 03:33N 53°33' E 000°27'14211.8
2015-Feb-23 15:31N 53°23' E 004°25'1212.7
2015-Feb-23 14:34N 53°30' E 004°42'1313.2
2015-Feb-23 13:33N 53°34' E 005°03'1313.5
2015-Feb-23 12:33N 53°39' E 005°24'1413.6
2015-Feb-23 11:34N 53°44' E 005°46'1813.8
2015-Feb-23 10:13N 53°50' E 006°15'4115.6
2015-Feb-23 07:33N 53°60' E 007°23'1716.8
2015-Feb-23 06:33N 54°01' E 007°52'1413.9
2015-Feb-23 05:33N 54°00' E 008°15'1414.0
2015-Feb-23 04:33N 53°57' E 008°38'1312.6
2015-Feb-23 03:33N 53°51' E 008°57'7 7.2
2015-Feb-23 02:33N 53°54' E 009°09'2 1.5
2015-Feb-23 01:33N 53°55' E 009°11'7 7.1
2015-Feb-23 00:33N 54°01' E 009°18'8 8.2
2015-Feb-22 23:33N 54°08' E 009°21'23 5.7
2015-Feb-22 19:31N 54°21' E 009°54'6 6.1
2015-Feb-22 18:33N 54°22' E 010°04'2 2.0
2015-Feb-22 17:33N 54°22' E 010°07'2 1.6
2015-Feb-22 16:33N 54°22' E 010°10'4 4.4
2015-Feb-22 15:33N 54°26' E 010°13'1111.3
2015-Feb-22 14:34N 54°33' E 010°29'9 8.6
2015-Feb-22 13:33N 54°35' E 010°43'  
Track history (hours):
 
Tides and Currents Weather Stations Pressure Air Temp Water Temp Dewpoint Dewpoint Depression Visibility Wind Speed Wind Dir Waves Ship Positions

Finnhawk

Last reported at 2015-Mar-04 13:25 UTC. Time now 2015-Mar-04 20:22 UTC.
Position N 57°07' E 008°30'.

Length 163 m; draft 7 m.

Type: Ship (hazmat cat A). MMSI: 230007000.

Date/timePositionNaut miles runAvg speedWind from/ knotsBaromVisibWave heightAir tempDewpointWater temp
2015-Mar-04 13:25N 57°07' E 008°30'1516.3
2015-Mar-04 12:29N 57°18' E 008°50'5416.4
2015-Mar-04 09:11N 57°45' E 010°17'1016.4
2015-Mar-04 08:34N 57°48' E 010°36'1616.2
2015-Mar-04 07:33N 57°40' E 011°03'1817.8
2015-Mar-04 06:33N 57°28' E 011°26'1717.5
2015-Mar-04 05:33N 57°11' E 011°38'1717.4
2015-Mar-04 04:34N 56°55' E 011°49'1717.4
2015-Mar-04 03:34N 56°38' E 011°57'1717.0
2015-Mar-04 02:34N 56°23' E 012°12'1717.1
2015-Mar-04 01:34N 56°09' E 012°29'1515.4
2015-Mar-04 00:34N 55°56' E 012°44'1616.1
2015-Mar-03 23:34N 55°40' E 012°42'1313.2
2015-Mar-03 22:34N 55°27' E 012°42'1312.5
2015-Mar-03 21:33N 55°16' E 012°53'1817.5
2015-Mar-03 20:33N 55°15' E 013°24'1817.9
2015-Mar-03 19:33N 55°14' E 013°55'1616.2
2015-Mar-03 18:33N 55°18' E 014°23'1717.3
2015-Mar-03 17:33N 55°31' E 014°43'1817.2
2015-Mar-03 16:31N 55°39' E 015°11'35017.5
2015-Mar-02 20:34N 59°36' E 023°12'2218.0
2015-Mar-02 19:18N 59°42' E 023°55'1418.0
2015-Mar-02 18:33N 59°46' E 024°20'5518.2
2015-Mar-02 15:33N 60°02' E 026°04'1817.7
2015-Mar-02 14:33N 60°16' E 026°28'1717.2
2015-Mar-02 13:33N 60°25' E 026°56'4 3.8
2015-Mar-02 12:34N 60°29' E 026°57'0 0.0
2015-Mar-02 11:32N 60°29' E 026°57'0 0.0
2015-Mar-02 10:32N 60°29' E 026°57'0 0.0
2015-Mar-02 09:32N 60°29' E 026°57'0 0.0
2015-Mar-02 08:32N 60°29' E 026°57'0 0.0
2015-Mar-02 07:32N 60°29' E 026°57'0 0.0
2015-Mar-02 06:32N 60°29' E 026°57'0 0.0
2015-Mar-02 05:32N 60°29' E 026°57'0 0.0
2015-Mar-02 04:32N 60°29' E 026°57'0 0.0
2015-Mar-02 03:32N 60°29' E 026°57'0 0.0
2015-Mar-02 02:32N 60°29' E 026°57'0 0.0
2015-Mar-02 01:32N 60°29' E 026°57'0 0.0
2015-Mar-02 00:32N 60°29' E 026°57'0 0.0
2015-Mar-01 23:32N 60°29' E 026°57'0 0.0
2015-Mar-01 22:32N 60°29' E 026°57'0 0.0
2015-Mar-01 21:32N 60°29' E 026°57'0 0.0
2015-Mar-01 20:32N 60°29' E 026°57'0 0.0
2015-Mar-01 19:32N 60°29' E 026°57'0 0.0
2015-Mar-01 18:32N 60°29' E 026°57'0 0.0
2015-Mar-01 17:32N 60°29' E 026°57'0 0.0
2015-Mar-01 16:32N 60°29' E 026°57'0 0.0
2015-Mar-01 15:32N 60°29' E 026°57'0 0.0
2015-Mar-01 14:32N 60°29' E 026°57'0 0.0
2015-Mar-01 13:32N 60°29' E 026°57'0 0.0
2015-Mar-01 12:32N 60°29' E 026°57'0 0.0
2015-Mar-01 11:32N 60°29' E 026°57'0 0.0
2015-Mar-01 10:32N 60°29' E 026°57'0 0.0
2015-Mar-01 09:32N 60°29' E 026°57'0 0.0
2015-Mar-01 08:32N 60°29' E 026°57'0 0.0
2015-Mar-01 07:32N 60°29' E 026°57'0 0.2
2015-Mar-01 06:34N 60°29' E 026°57'1211.8
2015-Mar-01 05:34N 60°21' E 026°40'1817.1
2015-Mar-01 04:29N 60°04' E 026°25'11015.9
2015-Feb-28 21:33N 59°54' E 030°04'4 4.3
2015-Feb-28 20:33N 59°54' E 030°13'0 0.0
2015-Feb-28 19:32N 59°54' E 030°13'0 0.0
2015-Feb-28 18:32N 59°54' E 030°13'0 0.0
2015-Feb-28 17:32N 59°54' E 030°13'0 0.0
2015-Feb-28 16:32N 59°54' E 030°13'0 0.0
2015-Feb-28 15:32N 59°54' E 030°13'0 0.0
2015-Feb-28 14:32N 59°54' E 030°13'0 0.0
2015-Feb-28 13:32N 59°54' E 030°13'0 0.0
2015-Feb-28 12:33N 59°53' E 030°13'0 0.0
2015-Feb-28 11:33N 59°53' E 030°13'0 0.0
2015-Feb-28 10:33N 59°53' E 030°13'2 2.1
2015-Feb-28 09:33N 59°54' E 030°09'81 9.9
2015-Feb-28 01:24N 60°06' E 027°29'1619.1
2015-Feb-28 00:34N 59°58' E 027°01'2119.0
2015-Feb-27 23:27N 59°58' E 026°19'3417.7
2015-Feb-27 21:32N 60°04' E 025°12'9 3.1
2015-Feb-27 18:28N 60°13' E 025°12'0 0.0
2015-Feb-27 17:25N 60°13' E 025°12'0 0.0
2015-Feb-27 16:31N 60°13' E 025°12'0 0.0
2015-Feb-27 15:28N 60°13' E 025°12'0 0.0
2015-Feb-27 14:31N 60°13' E 025°12'0 0.0
2015-Feb-27 13:31N 60°13' E 025°12'3 3.5
2015-Feb-27 12:33N 60°10' E 025°13'3115.6
2015-Feb-27 10:33N 59°45' E 024°34'1817.0
2015-Feb-27 09:31N 59°40' E 024°01'1819.0
2015-Feb-27 08:33N 59°34' E 023°27'34618.2
2015-Feb-26 13:33N 55°40' E 015°31'1918.8
2015-Feb-26 12:33N 55°31' E 015°02'1919.0
2015-Feb-26 11:33N 55°20' E 014°35'1818.1
2015-Feb-26 10:33N 55°09' E 014°09'1918.9
2015-Feb-26 09:33N 55°12' E 013°36'1918.8
2015-Feb-26 08:33N 55°14' E 013°04'1716.5
2015-Feb-26 07:33N 55°21' E 012°37'1514.6
2015-Feb-26 06:33N 55°36' E 012°42'1515.2
2015-Feb-26 05:33N 55°51' E 012°41'1616.2
2015-Feb-26 04:33N 56°06' E 012°33'1817.7
2015-Feb-26 03:33N 56°20' E 012°12'1918.8
2015-Feb-26 02:33N 56°36' E 011°56'1918.7
2015-Feb-26 01:33N 56°54' E 011°45'1918.6
2015-Feb-26 00:33N 57°12' E 011°34'1918.8
2015-Feb-25 23:33N 57°29' E 011°20'1918.7
2015-Feb-25 22:33N 57°42' E 010°55'1818.1
2015-Feb-25 21:33N 57°44' E 010°21'39819.0
2015-Feb-25 00:34N 53°48' E 000°50'2019.7
2015-Feb-24 23:33N 53°38' E 000°22'1414.1
2015-Feb-24 22:33N 53°36' W 000°02'1312.6
2015-Feb-24 21:34N 53°44' W 000°16'0 0.4
2015-Feb-24 20:34N 53°44' W 000°16'0 0.0
2015-Feb-24 19:31N 53°44' W 000°16'0 0.0
2015-Feb-24 18:31N 53°44' W 000°16'0 0.0
2015-Feb-24 17:31N 53°44' W 000°16'0 0.0
2015-Feb-24 16:31N 53°44' W 000°16'0 0.0
2015-Feb-24 15:31N 53°44' W 000°16'0 0.0
2015-Feb-24 14:31N 53°44' W 000°16'0 0.0
2015-Feb-24 13:31N 53°44' W 000°16'0 0.0
2015-Feb-24 12:32N 53°44' W 000°16'0 0.0
2015-Feb-24 11:31N 53°44' W 000°16'0 0.0
2015-Feb-24 10:31N 53°44' W 000°16'0 0.0
2015-Feb-24 09:31N 53°44' W 000°16'0 0.0
2015-Feb-24 08:31N 53°44' W 000°16'0 0.0
2015-Feb-24 07:31N 53°44' W 000°16'0 0.3
2015-Feb-24 06:33N 53°44' W 000°16'8 8.3
2015-Feb-24 05:34N 53°38' W 000°08'1111.4
2015-Feb-24 04:34N 53°33' E 000°09'1110.9
2015-Feb-24 03:33N 53°33' E 000°27'14211.8
2015-Feb-23 15:31N 53°23' E 004°25'1212.7
2015-Feb-23 14:34N 53°30' E 004°42'1313.2
2015-Feb-23 13:33N 53°34' E 005°03'1313.5
2015-Feb-23 12:33N 53°39' E 005°24'1413.6
2015-Feb-23 11:34N 53°44' E 005°46'1813.8
2015-Feb-23 10:13N 53°50' E 006°15'4115.6
2015-Feb-23 07:33N 53°60' E 007°23'1716.8
2015-Feb-23 06:33N 54°01' E 007°52'1413.9
2015-Feb-23 05:33N 54°00' E 008°15'1414.0
2015-Feb-23 04:33N 53°57' E 008°38'1312.6
2015-Feb-23 03:33N 53°51' E 008°57'7 7.2
2015-Feb-23 02:33N 53°54' E 009°09'2 1.5
2015-Feb-23 01:33N 53°55' E 009°11'7 7.1
2015-Feb-23 00:33N 54°01' E 009°18'8 8.2
2015-Feb-22 23:33N 54°08' E 009°21'23 5.7
2015-Feb-22 19:31N 54°21' E 009°54'6 6.1
2015-Feb-22 18:33N 54°22' E 010°04'2 2.0
2015-Feb-22 17:33N 54°22' E 010°07'2 1.6
2015-Feb-22 16:33N 54°22' E 010°10'4 4.4
2015-Feb-22 15:33N 54°26' E 010°13'1111.3
2015-Feb-22 14:34N 54°33' E 010°29'9 8.6
2015-Feb-22 13:33N 54°35' E 010°43'  

Dump ship's entire track history